x

South Hatteras - 225 South Of Cape Hatteras (41002) Wave Buoy

4:50 - Mon 23rd Jan 2017 All times are EST. -5 hours from GMT.

  • Sig Wave height 14.4ft
  • Swell Direction
  • Peak Period 9s
  • Average Period 7s
  • Wind
    34mph, 45mph gusts
  • Sea Temp 71°f
  • Luft Temp 67°f
  • Sea Pressure 997.5mb
  • South Hatteras - 225 South Of Cape Hatteras
  • South Hatteras - 225 South Of Cape Hatteras

More Historic Weather Station data

Upgrade to MSW Pro to gain access to the past 30 days of data for over 8000 Wavebouys and Weather Stations around the globe.

Join Pro

Comparision Forecast

View Surf forecast
   
Mo 01/23 4:50 14.5ft 9s 7s 34 45 mph 997.5mb 71f 67f
3:50 13.5ft 9s 7s 31 38 mph 996.3mb 71f 74f
2:50 13ft 9s 7s 29 36 mph 997.5mb 71f 74f
1:50 11ft 8s 7s 29 38 mph 998.4mb 71f 74f
12:50 10ft 8s 7s 31 38 mph 998.6mb 71f 74f
So 01/22 11:50 10ft 9s 7s 13 20 mph 1000.9mb 71f 70f
10:50 8ft 8s 7s 9 11 mph 1002.4mb 71f 69f
9:50 8ft 8s 7s 4 9 mph 1003.3mb 71f 70f
8:50 10ft 8s 7s 4 9 mph 1003mb 71f 69f
7:50 11ft 8s 7s 11 13 mph 1003mb 71f 69f
6:50 10ft 8s 7s 4 11 mph 1002.8mb 71f 69f
5:50 10ft 8s 7s 18 22 mph 1002.8mb 71f 73f
4:50 8ft 8s 6s 20 22 mph 1003.9mb 71f 73f
3:50 9ft 8s 6s 25 29 mph 1003.6mb 71f 73f
2:50 8ft 8s 6s 22 29 mph 1003.5mb 71f 73f
1:50 8ft 8s 6s 25 31 mph 1003.6mb 71f 73f
12:50 8ft 7s 6s 25 29 mph 1004.3mb 71f 73f
11:50 8ft 7s 6s 22 27 mph 1006.4mb 71f 73f
10:50 7ft 7s 6s 20 25 mph 1007.7mb 71f 73f
9:50 7ft 7s 6s 18 22 mph 1008.6mb 71f 72f
8:50 7ft 7s 6s 20 22 mph 1008.4mb 71f 73f
7:50 7ft 6s 6s 20 25 mph 1007.9mb 71f 73f
6:50 7ft 7s 6s 20 27 mph 1007.8mb 71f 72f
5:50 7ft 7s 6s 22 27 mph 1007.2mb 71f 72f
4:50 7ft 6s 6s 25 29 mph 1006.8mb 71f 72f
3:50 7ft 6s 6s 20 25 mph 1006.9mb 71f 72f
2:50 6ft 6s 5s 20 25 mph 1007.1mb 71f 72f
1:50 5.5ft 6s 5s 20 25 mph 1007.2mb 71f 72f
12:50 5ft 6s 5s 20 29 mph 1009.4mb 71f 72f
Sa 01/21 11:50 5ft 6s 5s 18 22 mph 1010.3mb 71f 73f
10:50 4.5ft 6s 5s 18 20 mph 1010.8mb 71f 72f
9:50 4.5ft 11s 6s 13 18 mph 1010.8mb 71f 72f
8:50 4.5ft 10s 6s 13 16 mph 1011.3mb 71f 72f
7:50 4.5ft 9s 6s 16 18 mph 1011.4mb 71f 71f
6:50 4.5ft 11s 6s 13 18 mph 1011.1mb 71f 70f
5:50 4.5ft 6s 6s 13 16 mph 1010.9mb 71f 70f
4:50 4.5ft 7s 6s 13
mph
1010.9mb 71f 69f
3:50 5ft 12s 6s 11 13 mph 1011.1mb 71f 69f
2:50 5ft 10s 7s 11 16 mph 1011.4mb 71f 68f
1:50 5ft 12s 6s 7 9 mph 1012.2mb 71f 71f
12:50 5.5ft 6s 6s 2
mph
1012.8mb 71f 72f
11:50 6ft 7s 6s 2 4 mph 1014mb 71f 71f
10:50 6ft 6s 6s 2 4 mph 1014.4mb 71f 72f
9:50 5.5ft 12s 6s 4
mph
1014mb 71f 72f
8:50 5.5ft 13s 6s 4
mph
1014.1mb 70f 72f
7:50 6ft 6s 6s 9 11 mph 1013.7mb 71f 72f
6:50 6ft 11s 6s 11 13 mph 1013.6mb 70f 72f
5:50 6ft 6s 6s 16 18 mph 1013mb 70f 72f
4:50 6ft 11s 6s 16 18 mph 1012.5mb 70f 72f
3:50 6ft 6s 6s 16 20 mph 1012.6mb 70f 72f
2:50 6ft 12s 6s 11 13 mph 1012.9mb 70f 72f
1:50 5.5ft 12s 6s 16 20 mph 1012.6mb 70f 72f
12:50 5.5ft 11s 7s 16 20 mph 1012.6mb 70f 72f
Fr 01/20 11:50 5.5ft 13s 8s 16 18 mph 1013.1mb 70f 73f
10:50 5ft 14s 7s 11 13 mph 1013.7mb 70f 72f
9:50 5ft 11s 7s 11 13 mph 1013.9mb 70f 72f
8:50 5ft 13s 7s 11 13 mph 1013.7mb 70f 72f
7:50 5ft 12s 7s 9 11 mph 1013.4mb 70f 72f
6:50 5.5ft 11s 8s 9 11 mph 1013.4mb 70f 71f
5:50 6ft 11s 7s 4 7 mph 1013mb 70f 71f
4:50 5.5ft 13s 7s 4 7 mph 1013mb 70f 72f
3:50 5ft 10s 7s 7 11 mph 1012.7mb 70f 72f
2:50 6ft 14s 7s 11 13 mph 1012.6mb 70f 71f
1:50 5.5ft 11s 7s 16 18 mph 1012.7mb 71f 71f
12:50 5ft 13s 7s 16 20 mph 1013.4mb 71f 70f
11:50 6ft 12s 7s 16 18 mph 1014.6mb 71f 69f
10:50 6ft 11s 7s 13 18 mph 1015.5mb 71f 69f
9:50 5ft 11s 7s 11 13 mph 1015.9mb 71f 69f
8:50 5.5ft 10s 8s 11 13 mph 1015.5mb 71f 69f
7:50 5.5ft 12s 8s 9 11 mph 1015.1mb 71f 68f
6:50 5ft 11s 7s 9 11 mph 1015.3mb 71f 68f
5:50 5ft 9s 7s 7 11 mph 1015.1mb 71f 68f
4:50 5ft 9s 7s 7 9 mph 1015.5mb 71f 68f
3:50 5ft 9s 7s  -  2 mph 1015.5mb 71f 67f
2:50 4.5ft 9s 7s 2 4 mph 1015.4mb 71f 67f
1:50 5ft 9s 7s 2
mph
1015.6mb 71f 67f
12:50 5ft 9s 6s  -  2 mph 1015.2mb 71f 67f
Do 01/19 11:50 5ft 10s 7s 4 7 mph 1015.5mb 71f 67f
10:50 6ft 9s 7s 2 7 mph 1016.3mb 71f 67f
9:50 6ft 8s 7s 4 7 mph 1016mb 71f 67f
8:50 6ft 10s 7s 2 7 mph 1016.1mb 71f 67f
7:50 6.5ft 9s 7s 7 9 mph 1016.4mb 71f 68f
6:50 6ft 10s 7s 4 9 mph 1016.4mb 71f 67f
5:50 7ft 10s 7s 7 9 mph 1016.1mb 72f 67f
4:50 7ft 9s 7s 4 7 mph 1015.7mb 72f 67f
3:50 7ft 10s 7s 11 13 mph 1015.5mb 72f 67f
2:50 8ft 10s 7s 9 11 mph 1015.2mb 72f 67f
1:50 7ft 8s 7s 9 11 mph 1015.5mb 72f 67f
12:50 7ft 10s 7s 9 13 mph 1015.6mb 72f 67f
11:50 7ft 8s 7s 9 11 mph 1016.5mb 71f 67f
10:50 8ft 9s 7s 11 13 mph 1017.2mb 71f 67f